Carpenter Bottom, North Carolina
Current Conditions -  °F | °C
As of 9:55 AM on Wednesday 22 Oct 2014 (Local Time) from KTNB Reporting Station
Scattered Clouds Scattered Clouds  
Wind Chill: 35°   Ceiling: Unl
Heat Index: 42°   Visibility: 10mi
Dew Point: 32°   Wind: 12mph
Humidity: 68%   Direction: 290°WNW
Pressure: 30.11"   Gusts: 23mph
Location:  36.0825°N, 81.9964°W
Report Text: KTNB 221355Z AUTO 29010G20KT 10SM SCT022 05/00 A3011 RMK AO2 T00541001
Loading
Personal Weather Stations






























Interactive Weather Map
Tropical Storm Tracking
New forecast layout! Learn more

10-Day Weather Forecast

Advertisements
Track Severe Weather on mobile